createdAt,value
2019-05-14T00:02:51.889Z,100609.84
2019-05-14T00:07:58.404Z,100598.22
2019-05-14T00:13:05.836Z,100605.34
2019-05-14T00:18:13.174Z,100599.77
2019-05-14T00:23:21.461Z,100585.27
2019-05-14T00:28:31.547Z,100582.63
2019-05-14T00:33:38.239Z,100581.30
2019-05-14T00:38:45.597Z,100581.00
2019-05-14T00:43:52.939Z,100582.34
2019-05-14T00:49:01.803Z,100586.53
2019-05-14T00:54:11.167Z,100583.09
2019-05-14T00:59:18.450Z,100580.73
2019-05-14T01:04:25.898Z,100583.37
2019-05-14T01:09:33.300Z,100578.89
2019-05-14T01:14:42.333Z,100579.15
2019-05-14T01:19:51.363Z,100573.09
2019-05-14T01:24:58.695Z,100570.95
2019-05-14T01:30:06.813Z,100569.64
2019-05-14T01:35:14.344Z,100563.84
2019-05-14T01:40:21.964Z,100569.91
2019-05-14T01:45:31.550Z,100565.16
2019-05-14T01:50:38.510Z,100570.41
2019-05-14T01:55:45.961Z,100567.48
2019-05-14T02:00:53.378Z,100569.88
2019-05-14T02:06:01.478Z,100568.82
2019-05-14T02:11:09.029Z,100566.93
2019-05-14T02:16:16.490Z,100569.84
2019-05-14T02:21:23.894Z,100566.91
2019-05-14T02:26:31.713Z,100562.68
2019-05-14T02:31:39.467Z,100565.27
2019-05-14T02:36:49.719Z,100556.81
2019-05-14T02:41:58.756Z,100560.23
2019-05-14T02:47:04.953Z,100559.66
2019-05-14T02:52:12.398Z,100565.16
2019-05-14T02:57:20.252Z,100566.42
2019-05-14T03:02:29.690Z,100562.36
2019-05-14T03:07:39.259Z,100565.18
2019-05-14T03:12:49.212Z,100562.98
2019-05-14T03:17:56.164Z,100568.20
2019-05-14T03:23:08.869Z,100566.59
2019-05-14T03:28:12.682Z,100572.53
2019-05-14T03:33:22.005Z,100568.23
2019-05-14T03:38:29.794Z,100562.64
2019-05-14T03:43:39.133Z,100566.00
2019-05-14T03:48:49.372Z,100560.97
2019-05-14T03:54:05.674Z,100564.58
2019-05-14T03:59:05.321Z,100559.00
2019-05-14T04:04:13.220Z,100555.55
2019-05-14T04:09:23.660Z,100555.49
2019-05-14T04:14:33.652Z,100550.73
2019-05-14T04:19:43.969Z,100552.55
2019-05-14T04:24:55.308Z,100554.91
2019-05-14T04:30:04.099Z,100556.23
2019-05-14T04:35:12.226Z,100548.29
2019-05-14T04:40:19.703Z,100548.28
2019-05-14T04:45:29.654Z,100544.03
2019-05-14T04:50:36.334Z,100542.72
2019-05-14T04:55:43.930Z,100543.52
2019-05-14T05:00:51.369Z,100543.27
2019-05-14T05:05:59.108Z,100540.14
2019-05-14T05:11:09.323Z,100540.20
2019-05-14T05:16:15.731Z,100543.70
2019-05-14T05:21:23.139Z,100539.04
2019-05-14T05:26:30.440Z,100538.63
2019-05-14T05:31:38.245Z,100536.35
2019-05-14T05:36:45.775Z,100535.69
2019-05-14T05:41:53.148Z,100535.05
2019-05-14T05:47:00.454Z,100542.30
2019-05-14T05:52:08.513Z,100540.84
2019-05-14T05:57:18.566Z,100533.53
2019-05-14T06:02:25.232Z,100534.38
2019-05-14T06:07:32.618Z,100527.04
2019-05-14T06:12:39.927Z,100518.12
2019-05-14T06:17:49.235Z,100525.50
2019-05-14T06:22:58.735Z,100524.99
2019-05-14T06:28:05.613Z,100521.07
2019-05-14T06:33:13.017Z,100512.91
2019-05-14T06:38:20.348Z,100515.00
2019-05-14T06:43:28.781Z,100514.47
2019-05-14T06:48:39.290Z,100517.61
2019-05-14T06:53:45.587Z,100517.58
2019-05-14T06:58:52.944Z,100514.14
2019-05-14T07:04:00.328Z,100514.40
2019-05-14T07:09:08.421Z,100507.50
2019-05-14T07:14:15.812Z,100500.93
2019-05-14T07:19:23.255Z,100500.38
2019-05-14T07:24:30.724Z,100503.03
2019-05-14T07:29:38.803Z,100499.62
2019-05-14T07:34:48.222Z,100500.69
2019-05-14T07:39:57.850Z,100502.80
2019-05-14T07:45:05.095Z,100494.05
2019-05-14T07:50:12.920Z,100502.52
2019-05-14T07:55:20.287Z,100491.53
2019-05-14T08:00:28.618Z,100479.32
2019-05-14T08:05:36.068Z,100484.55
2019-05-14T08:10:43.492Z,100480.92
2019-05-14T08:15:50.857Z,100472.42
2019-05-14T08:20:59.251Z,100465.86
2019-05-14T08:26:07.952Z,100470.74
2019-05-14T08:31:15.556Z,100468.70
2019-05-14T08:36:22.890Z,100466.57
2019-05-14T08:41:30.346Z,100466.77
2019-05-14T08:46:38.846Z,100470.50
2019-05-14T08:51:49.184Z,100469.39
2019-05-14T08:56:58.202Z,100453.17
2019-05-14T09:02:06.727Z,100457.63
2019-05-14T09:07:13.721Z,100454.33
2019-05-14T09:12:21.203Z,100457.96
2019-05-14T09:17:28.957Z,100462.73
2019-05-14T09:22:39.532Z,100466.47
2019-05-14T09:27:45.537Z,100455.23
2019-05-14T09:32:53.013Z,100454.95
2019-05-14T09:38:01.246Z,100451.97
2019-05-14T09:43:09.213Z,100437.45
2019-05-14T09:48:18.055Z,100429.34
2019-05-14T09:53:25.749Z,100416.64
2019-05-14T09:58:33.202Z,100422.74
2019-05-14T10:03:40.656Z,100435.16
2019-05-14T10:08:48.596Z,100438.81
2019-05-14T10:13:56.183Z,100428.69
2019-05-14T10:19:03.614Z,100415.67
2019-05-14T10:24:11.015Z,100402.83
2019-05-14T10:29:19.170Z,100402.33
2019-05-14T10:34:28.740Z,100396.55
2019-05-14T10:39:38.863Z,100387.09
2019-05-14T10:44:44.973Z,100383.19
2019-05-14T10:49:52.387Z,100375.41
2019-05-14T10:54:59.741Z,100380.94
2019-05-14T11:00:08.873Z,100364.53
2019-05-14T11:05:18.538Z,100349.69
2019-05-14T11:10:25.641Z,100366.49
2019-05-14T11:15:33.338Z,100368.03
2019-05-14T11:20:42.224Z,100365.33
2019-05-14T11:25:49.803Z,100344.76
2019-05-14T11:30:57.219Z,100349.13
2019-05-14T11:36:04.598Z,100335.02
2019-05-14T11:41:12.091Z,100340.74
2019-05-14T11:46:33.551Z,100381.96
2019-05-14T11:51:56.102Z,100358.45
2019-05-14T11:56:41.932Z,100353.09
2019-05-14T12:01:49.184Z,100341.81
2019-05-14T12:06:55.539Z,100331.63
2019-05-14T12:12:03.047Z,100301.13
2019-05-14T12:17:10.446Z,100294.78
2019-05-14T12:22:19.006Z,100290.14
2019-05-14T12:27:26.689Z,100284.29
2019-05-14T12:32:34.141Z,100287.91
2019-05-14T12:37:41.639Z,100334.05
2019-05-14T12:42:49.962Z,100364.92
2019-05-14T12:47:58.498Z,100342.37
2019-05-14T12:53:08.251Z,100334.52
2019-05-14T12:58:14.937Z,100328.28
2019-05-14T13:03:22.248Z,100332.66
2019-05-14T13:08:29.618Z,100321.97
2019-05-14T13:13:42.442Z,100304.34
2019-05-14T13:18:49.537Z,100294.59
2019-05-14T13:23:56.306Z,100298.95
2019-05-14T13:29:07.490Z,100295.41
2019-05-14T13:34:12.888Z,100300.38
2019-05-14T13:39:20.270Z,100288.52
2019-05-14T13:44:29.229Z,100277.85
2019-05-14T13:49:39.094Z,100289.73
2019-05-14T13:54:45.849Z,100260.20
2019-05-14T13:59:53.309Z,100254.11
2019-05-14T14:05:00.617Z,100244.86
2019-05-14T14:10:09.545Z,100236.82
2019-05-14T14:15:18.224Z,100234.94
2019-05-14T14:20:25.541Z,100239.24
2019-05-14T14:25:32.810Z,100239.63
2019-05-14T14:30:40.147Z,100221.91
2019-05-14T14:35:48.551Z,100225.89
2019-05-14T14:40:58.135Z,100209.80
2019-05-14T14:46:07.253Z,100207.67
2019-05-14T14:51:14.086Z,100202.59
2019-05-14T14:56:21.595Z,100199.63
2019-05-14T15:01:40.680Z,100194.96
2019-05-14T15:06:50.921Z,100185.87
2019-05-14T15:11:59.851Z,100182.84
2019-05-14T15:17:06.176Z,100187.01
2019-05-14T15:22:13.611Z,100183.02
2019-05-14T15:27:21.015Z,100178.06
2019-05-14T15:32:30.281Z,100166.13
2019-05-14T15:37:42.274Z,100163.35
2019-05-14T15:42:46.534Z,100156.06
2019-05-14T15:47:53.895Z,100149.68
2019-05-14T15:53:01.382Z,100143.94
2019-05-14T15:58:08.964Z,100136.80
2019-05-14T16:03:18.665Z,100130.34
2019-05-14T16:08:25.602Z,100132.95
2019-05-14T16:13:34.345Z,100128.09
2019-05-14T16:18:41.799Z,100118.66
2019-05-14T16:23:49.199Z,100117.44
2019-05-14T16:34:44.420Z,100108.09
2019-05-14T16:39:52.893Z,100098.73
2019-05-14T16:45:00.449Z,100099.94
2019-05-14T16:50:10.051Z,100096.83
2019-05-14T16:55:24.500Z,100090.28
2019-05-14T17:00:29.191Z,100095.16
2019-05-14T17:05:38.049Z,100086.62
2019-05-14T17:10:44.627Z,100084.77
2019-05-14T17:15:52.036Z,100087.41
2019-05-14T17:20:59.696Z,100078.89
2019-05-14T17:26:08.845Z,100089.02
2019-05-14T17:31:19.068Z,100083.94
2019-05-14T17:36:28.114Z,100078.63
2019-05-14T17:41:34.570Z,100083.35
2019-05-14T17:46:42.004Z,100083.70
2019-05-14T17:51:49.387Z,100088.14
2019-05-14T17:56:59.048Z,100092.58
2019-05-14T18:02:08.558Z,100091.68
2019-05-14T18:07:15.488Z,100088.87
2019-05-14T18:12:22.921Z,100088.98
2019-05-14T18:17:30.438Z,100092.88
2019-05-14T18:22:41.993Z,100089.67
2019-05-14T18:27:49.880Z,100087.05
2019-05-14T18:32:59.498Z,100094.68
2019-05-14T18:38:08.245Z,100098.11
2019-05-14T18:43:15.821Z,100096.70
2019-05-14T18:48:23.283Z,100101.39
2019-05-14T18:53:30.860Z,100103.66
2019-05-14T18:58:38.890Z,100103.52
2019-05-14T19:03:49.437Z,100107.86
2019-05-14T19:08:56.805Z,100114.41
2019-05-14T19:14:04.653Z,100110.63
2019-05-14T19:19:12.465Z,100113.23
2019-05-14T19:24:24.302Z,100105.34
2019-05-14T19:29:32.843Z,100105.35
2019-05-14T19:34:40.382Z,100105.15
2019-05-14T19:39:48.493Z,100103.03
2019-05-14T19:44:56.251Z,100109.38
2019-05-14T19:50:04.070Z,100104.08
2019-05-14T19:55:12.155Z,100102.27
2019-05-14T20:00:28.614Z,100103.33
2019-05-14T20:05:35.787Z,100105.97
2019-05-14T20:10:43.840Z,100117.02
2019-05-14T20:16:11.769Z,100115.19
2019-05-14T20:21:19.297Z,100111.69
2019-05-14T20:26:28.198Z,100110.38
2019-05-14T20:31:36.134Z,100113.80
2019-05-14T20:36:43.733Z,100109.06
2019-05-14T20:41:51.348Z,100106.86
2019-05-14T20:46:58.904Z,100107.95
2019-05-14T20:52:08.629Z,100102.14
2019-05-14T20:57:24.435Z,100098.64
2019-05-14T21:02:29.451Z,100101.20
2019-05-14T21:07:38.704Z,100105.27
2019-05-14T21:12:48.834Z,100099.19
2019-05-14T21:17:56.440Z,100096.98
2019-05-14T21:23:04.028Z,100101.25
2019-05-14T21:28:11.615Z,100092.02
2019-05-14T21:33:19.062Z,100091.91
2019-05-14T21:38:28.544Z,100091.80
2019-05-14T21:43:35.535Z,100091.51
2019-05-14T21:48:43.039Z,100093.94
2019-05-14T21:53:50.545Z,100090.75
2019-05-14T21:59:01.063Z,100081.06
2019-05-14T22:04:08.738Z,100076.80
2019-05-14T22:09:16.228Z,100078.00
2019-05-14T22:14:23.762Z,100074.83
2019-05-14T22:19:31.175Z,100064.92
2019-05-14T22:24:38.620Z,100064.62
2019-05-14T22:29:46.038Z,100055.95
2019-05-14T22:34:53.446Z,100056.74
2019-05-14T22:40:00.858Z,100047.72
2019-05-14T22:45:09.465Z,100044.84
2019-05-14T22:50:18.371Z,100040.16
2019-05-14T22:55:25.966Z,100043.22
2019-05-14T23:00:33.468Z,100038.36
2019-05-14T23:05:40.819Z,100036.77
2019-05-14T23:10:49.105Z,100034.94
2019-05-14T23:15:58.750Z,100021.07
2019-05-14T23:21:08.592Z,100020.23
2019-05-14T23:26:14.709Z,100023.00
2019-05-14T23:31:22.102Z,100019.52
2019-05-14T23:36:29.663Z,100024.26
2019-05-14T23:41:38.383Z,100019.06
2019-05-14T23:46:49.847Z,100006.47
2019-05-14T23:51:57.280Z,100001.58
2019-05-14T23:57:04.735Z,100005.11
